sensor_id;sensor_type;location;lat;lon;timestamp;temperature;humidity
10057;DHT22;5068;51.286;7.518;2022-08-19T00:01:00;15.00;61.60
10057;DHT22;5068;51.286;7.518;2022-08-19T00:02:33;15.00;61.50
10057;DHT22;5068;51.286;7.518;2022-08-19T00:04:09;15.00;61.50
10057;DHT22;5068;51.286;7.518;2022-08-19T00:05:44;14.90;61.50
10057;DHT22;5068;51.286;7.518;2022-08-19T00:07:18;14.90;61.50
10057;DHT22;5068;51.286;7.518;2022-08-19T00:08:53;14.90;61.70
10057;DHT22;5068;51.286;7.518;2022-08-19T00:10:28;14.90;61.70
10057;DHT22;5068;51.286;7.518;2022-08-19T00:12:02;14.90;61.70
10057;DHT22;5068;51.286;7.518;2022-08-19T00:13:36;14.80;61.50
10057;DHT22;5068;51.286;7.518;2022-08-19T00:15:14;14.80;61.50
10057;DHT22;5068;51.286;7.518;2022-08-19T00:16:49;14.80;61.90
10057;DHT22;5068;51.286;7.518;2022-08-19T00:18:26;14.80;61.70
10057;DHT22;5068;51.286;7.518;2022-08-19T00:19:59;14.80;61.80
10057;DHT22;5068;51.286;7.518;2022-08-19T00:21:33;14.80;61.90
10057;DHT22;5068;51.286;7.518;2022-08-19T00:23:10;14.70;62.00
10057;DHT22;5068;51.286;7.518;2022-08-19T00:24:45;14.70;61.90
10057;DHT22;5068;51.286;7.518;2022-08-19T00:26:21;14.70;61.90
10057;DHT22;5068;51.286;7.518;2022-08-19T00:27:54;14.70;61.90
10057;DHT22;5068;51.286;7.518;2022-08-19T00:29:28;14.70;62.00
10057;DHT22;5068;51.286;7.518;2022-08-19T00:31:03;14.70;62.00
10057;DHT22;5068;51.286;7.518;2022-08-19T00:32:38;14.60;62.00
10057;DHT22;5068;51.286;7.518;2022-08-19T00:34:13;14.60;62.00
10057;DHT22;5068;51.286;7.518;2022-08-19T00:35:47;14.60;62.10
10057;DHT22;5068;51.286;7.518;2022-08-19T00:37:27;14.60;62.00
10057;DHT22;5068;51.286;7.518;2022-08-19T00:39:00;14.60;62.10
10057;DHT22;5068;51.286;7.518;2022-08-19T00:40:35;14.50;62.00
10057;DHT22;5068;51.286;7.518;2022-08-19T00:42:09;14.50;62.10
10057;DHT22;5068;51.286;7.518;2022-08-19T00:43:41;14.50;62.10
10057;DHT22;5068;51.286;7.518;2022-08-19T00:45:17;14.50;62.10
10057;DHT22;5068;51.286;7.518;2022-08-19T00:46:53;14.50;62.20
10057;DHT22;5068;51.286;7.518;2022-08-19T00:48:32;14.50;62.20
10057;DHT22;5068;51.286;7.518;2022-08-19T00:50:08;14.40;62.20
10057;DHT22;5068;51.286;7.518;2022-08-19T00:51:44;14.40;62.20
10057;DHT22;5068;51.286;7.518;2022-08-19T00:53:22;14.40;62.30
10057;DHT22;5068;51.286;7.518;2022-08-19T00:54:59;14.40;62.30
10057;DHT22;5068;51.286;7.518;2022-08-19T00:56:35;14.30;62.20
10057;DHT22;5068;51.286;7.518;2022-08-19T00:58:15;14.30;62.30
10057;DHT22;5068;51.286;7.518;2022-08-19T00:59:54;14.30;62.30
10057;DHT22;5068;51.286;7.518;2022-08-19T01:01:37;14.30;62.50
10057;DHT22;5068;51.286;7.518;2022-08-19T01:03:19;14.30;62.50
10057;DHT22;5068;51.286;7.518;2022-08-19T01:04:56;14.30;62.50
10057;DHT22;5068;51.286;7.518;2022-08-19T01:06:36;14.20;62.50
10057;DHT22;5068;51.286;7.518;2022-08-19T01:08:18;14.20;62.50
10057;DHT22;5068;51.286;7.518;2022-08-19T01:09:55;14.20;62.50
10057;DHT22;5068;51.286;7.518;2022-08-19T01:11:37;14.20;62.50
10057;DHT22;5068;51.286;7.518;2022-08-19T01:13:17;14.20;62.60
10057;DHT22;5068;51.286;7.518;2022-08-19T01:14:57;14.20;62.60
10057;DHT22;5068;51.286;7.518;2022-08-19T01:16:35;14.20;62.70
10057;DHT22;5068;51.286;7.518;2022-08-19T01:18:14;14.10;62.60
10057;DHT22;5068;51.286;7.518;2022-08-19T01:19:53;14.10;62.80
10057;DHT22;5068;51.286;7.518;2022-08-19T01:21:31;14.10;62.70
10057;DHT22;5068;51.286;7.518;2022-08-19T01:23:09;14.10;62.80
10057;DHT22;5068;51.286;7.518;2022-08-19T01:24:43;14.10;62.90
10057;DHT22;5068;51.286;7.518;2022-08-19T01:26:23;14.00;62.80
10057;DHT22;5068;51.286;7.518;2022-08-19T01:27:57;14.10;63.00
10057;DHT22;5068;51.286;7.518;2022-08-19T01:29:43;14.00;62.80
10057;DHT22;5068;51.286;7.518;2022-08-19T01:31:21;14.00;62.80
10057;DHT22;5068;51.286;7.518;2022-08-19T01:32:59;14.00;62.90
10057;DHT22;5068;51.286;7.518;2022-08-19T01:34:33;14.00;62.90
10057;DHT22;5068;51.286;7.518;2022-08-19T01:36:09;14.00;62.90
10057;DHT22;5068;51.286;7.518;2022-08-19T01:37:48;13.90;63.00
10057;DHT22;5068;51.286;7.518;2022-08-19T01:39:26;13.90;63.00
10057;DHT22;5068;51.286;7.518;2022-08-19T01:40:58;13.90;63.00
10057;DHT22;5068;51.286;7.518;2022-08-19T01:42:40;13.90;63.00
10057;DHT22;5068;51.286;7.518;2022-08-19T01:44:13;13.90;63.10
10057;DHT22;5068;51.286;7.518;2022-08-19T01:45:49;13.90;63.30
10057;DHT22;5068;51.286;7.518;2022-08-19T01:47:24;13.90;63.40
10057;DHT22;5068;51.286;7.518;2022-08-19T01:48:58;13.80;63.30
10057;DHT22;5068;51.286;7.518;2022-08-19T01:50:33;13.80;63.30
10057;DHT22;5068;51.286;7.518;2022-08-19T01:52:07;13.80;63.40
10057;DHT22;5068;51.286;7.518;2022-08-19T01:53:41;13.80;63.40
10057;DHT22;5068;51.286;7.518;2022-08-19T01:55:19;13.80;63.40
10057;DHT22;5068;51.286;7.518;2022-08-19T01:56:59;13.80;63.60
10057;DHT22;5068;51.286;7.518;2022-08-19T01:58:44;13.80;63.60
10057;DHT22;5068;51.286;7.518;2022-08-19T02:00:23;13.80;63.60
10057;DHT22;5068;51.286;7.518;2022-08-19T02:02:00;13.70;63.50
10057;DHT22;5068;51.286;7.518;2022-08-19T02:03:36;13.70;63.50
10057;DHT22;5068;51.286;7.518;2022-08-19T02:05:13;13.70;63.50
10057;DHT22;5068;51.286;7.518;2022-08-19T02:06:46;13.70;63.50
10057;DHT22;5068;51.286;7.518;2022-08-19T02:08:19;13.70;63.60
10057;DHT22;5068;51.286;7.518;2022-08-19T02:09:53;13.60;63.50
10057;DHT22;5068;51.286;7.518;2022-08-19T02:11:30;13.70;63.70
10057;DHT22;5068;51.286;7.518;2022-08-19T02:13:07;13.70;64.00
10057;DHT22;5068;51.286;7.518;2022-08-19T02:14:42;13.60;63.70
10057;DHT22;5068;51.286;7.518;2022-08-19T02:16:16;13.60;63.80
10057;DHT22;5068;51.286;7.518;2022-08-19T02:17:50;13.60;63.80
10057;DHT22;5068;51.286;7.518;2022-08-19T02:19:24;13.60;63.80
10057;DHT22;5068;51.286;7.518;2022-08-19T02:20:57;13.50;63.80
10057;DHT22;5068;51.286;7.518;2022-08-19T02:22:31;13.50;63.80
10057;DHT22;5068;51.286;7.518;2022-08-19T02:24:05;13.50;63.90
10057;DHT22;5068;51.286;7.518;2022-08-19T02:25:38;13.50;63.90
10057;DHT22;5068;51.286;7.518;2022-08-19T02:27:13;13.50;64.00
10057;DHT22;5068;51.286;7.518;2022-08-19T02:28:48;13.50;64.10
10057;DHT22;5068;51.286;7.518;2022-08-19T02:30:22;13.50;64.10
10057;DHT22;5068;51.286;7.518;2022-08-19T02:31:56;13.50;64.30
10057;DHT22;5068;51.286;7.518;2022-08-19T02:33:30;13.50;64.40
10057;DHT22;5068;51.286;7.518;2022-08-19T02:35:04;13.50;64.50
10057;DHT22;5068;51.286;7.518;2022-08-19T02:36:44;13.50;64.70
10057;DHT22;5068;51.286;7.518;2022-08-19T02:38:23;13.50;64.70
10057;DHT22;5068;51.286;7.518;2022-08-19T02:39:59;13.50;64.60
10057;DHT22;5068;51.286;7.518;2022-08-19T02:41:32;13.50;64.70
10057;DHT22;5068;51.286;7.518;2022-08-19T02:43:08;13.50;64.70
10057;DHT22;5068;51.286;7.518;2022-08-19T02:44:41;13.40;64.70
10057;DHT22;5068;51.286;7.518;2022-08-19T02:46:17;13.40;64.60
10057;DHT22;5068;51.286;7.518;2022-08-19T02:47:53;13.40;64.60
10057;DHT22;5068;51.286;7.518;2022-08-19T02:49:25;13.40;64.50
10057;DHT22;5068;51.286;7.518;2022-08-19T02:50:58;13.40;64.50
10057;DHT22;5068;51.286;7.518;2022-08-19T02:52:32;13.40;64.50
10057;DHT22;5068;51.286;7.518;2022-08-19T02:54:08;13.40;64.50
10057;DHT22;5068;51.286;7.518;2022-08-19T02:55:44;13.40;64.60
10057;DHT22;5068;51.286;7.518;2022-08-19T02:57:18;13.40;64.60
10057;DHT22;5068;51.286;7.518;2022-08-19T02:58:52;13.40;64.70
10057;DHT22;5068;51.286;7.518;2022-08-19T03:00:47;13.40;64.80
10057;DHT22;5068;51.286;7.518;2022-08-19T03:02:23;13.40;65.10
10057;DHT22;5068;51.286;7.518;2022-08-19T03:03:59;13.40;64.70
10057;DHT22;5068;51.286;7.518;2022-08-19T03:05:35;13.40;64.80
10057;DHT22;5068;51.286;7.518;2022-08-19T03:07:27;13.40;64.80
10057;DHT22;5068;51.286;7.518;2022-08-19T03:09:00;13.30;64.70
10057;DHT22;5068;51.286;7.518;2022-08-19T03:10:40;13.40;64.80
10057;DHT22;5068;51.286;7.518;2022-08-19T03:12:16;13.30;65.00
10057;DHT22;5068;51.286;7.518;2022-08-19T03:13:49;13.30;64.90
10057;DHT22;5068;51.286;7.518;2022-08-19T03:15:26;13.30;65.10
10057;DHT22;5068;51.286;7.518;2022-08-19T03:17:00;13.30;65.10
10057;DHT22;5068;51.286;7.518;2022-08-19T03:18:35;13.30;65.30
10057;DHT22;5068;51.286;7.518;2022-08-19T03:20:09;13.30;65.30
10057;DHT22;5068;51.286;7.518;2022-08-19T03:21:45;13.30;65.30
10057;DHT22;5068;51.286;7.518;2022-08-19T03:23:18;13.30;65.30
10057;DHT22;5068;51.286;7.518;2022-08-19T03:24:52;13.30;65.30
10057;DHT22;5068;51.286;7.518;2022-08-19T03:26:26;13.30;65.20
10057;DHT22;5068;51.286;7.518;2022-08-19T03:28:00;13.30;65.20
10057;DHT22;5068;51.286;7.518;2022-08-19T03:29:37;13.30;65.20
10057;DHT22;5068;51.286;7.518;2022-08-19T03:31:16;13.20;65.20
10057;DHT22;5068;51.286;7.518;2022-08-19T03:33:11;13.20;65.30
10057;DHT22;5068;51.286;7.518;2022-08-19T03:34:49;13.20;65.10
10057;DHT22;5068;51.286;7.518;2022-08-19T03:36:26;13.30;65.20
10057;DHT22;5068;51.286;7.518;2022-08-19T03:38:00;13.20;65.10
10057;DHT22;5068;51.286;7.518;2022-08-19T03:39:35;13.30;65.20
10057;DHT22;5068;51.286;7.518;2022-08-19T03:41:11;13.30;65.30
10057;DHT22;5068;51.286;7.518;2022-08-19T03:42:46;13.20;65.20
10057;DHT22;5068;51.286;7.518;2022-08-19T03:44:21;13.20;65.20
10057;DHT22;5068;51.286;7.518;2022-08-19T03:46:06;13.20;65.20
10057;DHT22;5068;51.286;7.518;2022-08-19T03:47:41;13.20;65.30
10057;DHT22;5068;51.286;7.518;2022-08-19T03:49:15;13.20;65.10
10057;DHT22;5068;51.286;7.518;2022-08-19T03:50:50;13.20;65.10
10057;DHT22;5068;51.286;7.518;2022-08-19T03:52:26;13.20;65.10
10057;DHT22;5068;51.286;7.518;2022-08-19T03:54:01;13.20;65.10
10057;DHT22;5068;51.286;7.518;2022-08-19T03:55:39;13.20;65.20
10057;DHT22;5068;51.286;7.518;2022-08-19T03:57:13;13.20;65.20
10057;DHT22;5068;51.286;7.518;2022-08-19T03:58:47;13.20;65.20
10057;DHT22;5068;51.286;7.518;2022-08-19T04:00:21;13.20;65.20
10057;DHT22;5068;51.286;7.518;2022-08-19T04:01:57;13.20;65.20
10057;DHT22;5068;51.286;7.518;2022-08-19T04:03:32;13.20;65.20
10057;DHT22;5068;51.286;7.518;2022-08-19T04:05:08;13.10;65.00
10057;DHT22;5068;51.286;7.518;2022-08-19T04:06:43;13.20;65.30
10057;DHT22;5068;51.286;7.518;2022-08-19T04:08:15;13.10;65.30
10057;DHT22;5068;51.286;7.518;2022-08-19T04:09:50;13.10;65.30
10057;DHT22;5068;51.286;7.518;2022-08-19T04:11:28;13.10;65.20
10057;DHT22;5068;51.286;7.518;2022-08-19T04:13:15;13.10;65.20
10057;DHT22;5068;51.286;7.518;2022-08-19T04:14:50;13.10;65.20
10057;DHT22;5068;51.286;7.518;2022-08-19T04:16:24;13.10;65.20
10057;DHT22;5068;51.286;7.518;2022-08-19T04:18:08;13.10;65.20
10057;DHT22;5068;51.286;7.518;2022-08-19T04:19:42;13.10;65.30
10057;DHT22;5068;51.286;7.518;2022-08-19T04:21:19;13.10;65.20
10057;DHT22;5068;51.286;7.518;2022-08-19T04:22:53;13.10;65.30
10057;DHT22;5068;51.286;7.518;2022-08-19T04:24:26;13.10;65.30
10057;DHT22;5068;51.286;7.518;2022-08-19T04:26:00;13.10;65.30
10057;DHT22;5068;51.286;7.518;2022-08-19T04:27:35;13.10;65.40
10057;DHT22;5068;51.286;7.518;2022-08-19T04:29:12;13.00;65.40
10057;DHT22;5068;51.286;7.518;2022-08-19T04:30:48;13.00;65.40
10057;DHT22;5068;51.286;7.518;2022-08-19T04:32:22;13.00;65.50
10057;DHT22;5068;51.286;7.518;2022-08-19T04:33:59;13.00;65.50
10057;DHT22;5068;51.286;7.518;2022-08-19T04:35:38;13.00;65.60
10057;DHT22;5068;51.286;7.518;2022-08-19T04:37:12;13.00;65.70
10057;DHT22;5068;51.286;7.518;2022-08-19T04:38:46;13.00;65.50
10057;DHT22;5068;51.286;7.518;2022-08-19T04:40:19;13.00;65.60
10057;DHT22;5068;51.286;7.518;2022-08-19T04:42:10;13.00;65.60
10057;DHT22;5068;51.286;7.518;2022-08-19T04:44:02;13.00;65.60
10057;DHT22;5068;51.286;7.518;2022-08-19T04:45:36;13.00;65.50
10057;DHT22;5068;51.286;7.518;2022-08-19T04:47:15;13.00;65.50
10057;DHT22;5068;51.286;7.518;2022-08-19T04:49:10;12.90;65.50
10057;DHT22;5068;51.286;7.518;2022-08-19T04:50:45;12.90;65.90
10057;DHT22;5068;51.286;7.518;2022-08-19T04:52:20;12.90;65.80
10057;DHT22;5068;51.286;7.518;2022-08-19T04:53:53;13.00;65.90
10057;DHT22;5068;51.286;7.518;2022-08-19T04:55:27;12.90;65.80
10057;DHT22;5068;51.286;7.518;2022-08-19T04:57:01;12.90;65.80
10057;DHT22;5068;51.286;7.518;2022-08-19T04:58:36;12.90;65.80
10057;DHT22;5068;51.286;7.518;2022-08-19T05:00:12;12.90;65.90
10057;DHT22;5068;51.286;7.518;2022-08-19T05:01:46;12.90;65.90
10057;DHT22;5068;51.286;7.518;2022-08-19T05:03:21;12.90;65.90
10057;DHT22;5068;51.286;7.518;2022-08-19T05:05:03;12.90;65.90
10057;DHT22;5068;51.286;7.518;2022-08-19T05:06:39;12.90;65.90
10057;DHT22;5068;51.286;7.518;2022-08-19T05:08:13;12.90;65.90
10057;DHT22;5068;51.286;7.518;2022-08-19T05:10:03;12.90;65.90
10057;DHT22;5068;51.286;7.518;2022-08-19T05:11:38;12.90;66.00
10057;DHT22;5068;51.286;7.518;2022-08-19T05:13:12;12.90;66.20
10057;DHT22;5068;51.286;7.518;2022-08-19T05:14:46;12.90;66.30
10057;DHT22;5068;51.286;7.518;2022-08-19T05:16:22;12.90;66.40
10057;DHT22;5068;51.286;7.518;2022-08-19T05:17:57;12.90;66.50
10057;DHT22;5068;51.286;7.518;2022-08-19T05:19:48;12.90;66.50
10057;DHT22;5068;51.286;7.518;2022-08-19T05:21:43;12.90;67.30
10057;DHT22;5068;51.286;7.518;2022-08-19T05:23:36;12.90;66.60
10057;DHT22;5068;51.286;7.518;2022-08-19T05:25:12;12.90;66.60
10057;DHT22;5068;51.286;7.518;2022-08-19T05:26:49;12.90;66.70
10057;DHT22;5068;51.286;7.518;2022-08-19T05:28:23;12.90;66.80
10057;DHT22;5068;51.286;7.518;2022-08-19T05:29:57;12.90;66.80
10057;DHT22;5068;51.286;7.518;2022-08-19T05:31:29;12.90;66.90
10057;DHT22;5068;51.286;7.518;2022-08-19T05:33:04;13.00;67.00
10057;DHT22;5068;51.286;7.518;2022-08-19T05:34:38;12.90;67.00
10057;DHT22;5068;51.286;7.518;2022-08-19T05:36:11;12.90;67.20
10057;DHT22;5068;51.286;7.518;2022-08-19T05:37:47;12.90;67.20
10057;DHT22;5068;51.286;7.518;2022-08-19T05:39:29;12.90;67.30
10057;DHT22;5068;51.286;7.518;2022-08-19T05:41:07;12.90;67.50
10057;DHT22;5068;51.286;7.518;2022-08-19T05:42:41;13.00;67.70
10057;DHT22;5068;51.286;7.518;2022-08-19T05:44:26;13.00;67.60
10057;DHT22;5068;51.286;7.518;2022-08-19T05:46:02;13.00;67.80
10057;DHT22;5068;51.286;7.518;2022-08-19T05:47:36;13.00;67.80
10057;DHT22;5068;51.286;7.518;2022-08-19T05:49:14;13.00;67.90
10057;DHT22;5068;51.286;7.518;2022-08-19T05:50:47;13.00;68.00
10057;DHT22;5068;51.286;7.518;2022-08-19T05:52:23;13.00;68.00
10057;DHT22;5068;51.286;7.518;2022-08-19T05:53:58;13.00;68.90
10057;DHT22;5068;51.286;7.518;2022-08-19T05:55:32;13.00;68.20
10057;DHT22;5068;51.286;7.518;2022-08-19T05:57:06;13.10;68.40
10057;DHT22;5068;51.286;7.518;2022-08-19T05:58:45;13.10;68.50
10057;DHT22;5068;51.286;7.518;2022-08-19T06:00:17;13.10;68.50
10057;DHT22;5068;51.286;7.518;2022-08-19T06:01:56;13.10;68.50
10057;DHT22;5068;51.286;7.518;2022-08-19T06:03:30;13.10;68.50
10057;DHT22;5068;51.286;7.518;2022-08-19T06:05:05;13.10;68.50
10057;DHT22;5068;51.286;7.518;2022-08-19T06:06:40;13.10;68.50
10057;DHT22;5068;51.286;7.518;2022-08-19T06:08:14;13.20;68.60
10057;DHT22;5068;51.286;7.518;2022-08-19T06:09:51;13.20;69.60
10057;DHT22;5068;51.286;7.518;2022-08-19T06:11:34;13.20;68.90
10057;DHT22;5068;51.286;7.518;2022-08-19T06:13:10;13.20;68.90
10057;DHT22;5068;51.286;7.518;2022-08-19T06:14:43;13.20;68.90
10057;DHT22;5068;51.286;7.518;2022-08-19T06:16:20;13.20;69.00
10057;DHT22;5068;51.286;7.518;2022-08-19T06:17:54;13.30;69.30
10057;DHT22;5068;51.286;7.518;2022-08-19T06:19:28;13.30;69.40
10057;DHT22;5068;51.286;7.518;2022-08-19T06:21:03;13.30;69.40
10057;DHT22;5068;51.286;7.518;2022-08-19T06:22:37;13.40;69.50
10057;DHT22;5068;51.286;7.518;2022-08-19T06:24:14;13.40;69.50
10057;DHT22;5068;51.286;7.518;2022-08-19T06:25:50;13.40;69.50
10057;DHT22;5068;51.286;7.518;2022-08-19T06:27:24;13.40;69.60
10057;DHT22;5068;51.286;7.518;2022-08-19T06:28:58;13.50;69.80
10057;DHT22;5068;51.286;7.518;2022-08-19T06:30:31;13.50;70.00
10057;DHT22;5068;51.286;7.518;2022-08-19T06:32:05;13.50;70.20
10057;DHT22;5068;51.286;7.518;2022-08-19T06:33:39;13.60;70.50
10057;DHT22;5068;51.286;7.518;2022-08-19T06:35:12;13.60;70.60
10057;DHT22;5068;51.286;7.518;2022-08-19T06:36:48;13.60;70.70
10057;DHT22;5068;51.286;7.518;2022-08-19T06:38:24;13.70;70.80
10057;DHT22;5068;51.286;7.518;2022-08-19T06:39:57;13.70;70.80
10057;DHT22;5068;51.286;7.518;2022-08-19T06:41:35;13.80;70.90
10057;DHT22;5068;51.286;7.518;2022-08-19T06:43:21;13.80;71.10
10057;DHT22;5068;51.286;7.518;2022-08-19T06:45:00;13.80;71.00
10057;DHT22;5068;51.286;7.518;2022-08-19T06:46:41;13.90;71.10
10057;DHT22;5068;51.286;7.518;2022-08-19T06:48:24;13.90;71.10
10057;DHT22;5068;51.286;7.518;2022-08-19T06:49:59;14.00;71.20
10057;DHT22;5068;51.286;7.518;2022-08-19T06:51:36;14.00;71.20
10057;DHT22;5068;51.286;7.518;2022-08-19T06:53:15;14.00;71.20
10057;DHT22;5068;51.286;7.518;2022-08-19T06:54:50;14.10;71.30
10057;DHT22;5068;51.286;7.518;2022-08-19T06:56:29;14.10;71.30
10057;DHT22;5068;51.286;7.518;2022-08-19T06:58:06;14.10;71.50
10057;DHT22;5068;51.286;7.518;2022-08-19T06:59:41;14.20;71.50
10057;DHT22;5068;51.286;7.518;2022-08-19T07:01:14;14.20;71.60
10057;DHT22;5068;51.286;7.518;2022-08-19T07:02:48;14.30;71.70
10057;DHT22;5068;51.286;7.518;2022-08-19T07:04:30;14.30;71.80
10057;DHT22;5068;51.286;7.518;2022-08-19T07:06:07;14.40;72.10
10057;DHT22;5068;51.286;7.518;2022-08-19T07:08:02;14.40;72.10
10057;DHT22;5068;51.286;7.518;2022-08-19T07:09:41;14.50;72.30
10057;DHT22;5068;51.286;7.518;2022-08-19T07:11:28;14.60;72.60
10057;DHT22;5068;51.286;7.518;2022-08-19T07:13:06;14.60;72.50
10057;DHT22;5068;51.286;7.518;2022-08-19T07:14:40;14.70;72.50
10057;DHT22;5068;51.286;7.518;2022-08-19T07:16:15;14.80;72.50
10057;DHT22;5068;51.286;7.518;2022-08-19T07:18:00;14.80;72.40
10057;DHT22;5068;51.286;7.518;2022-08-19T07:19:35;14.90;72.20
10057;DHT22;5068;51.286;7.518;2022-08-19T07:21:13;15.00;72.20
10057;DHT22;5068;51.286;7.518;2022-08-19T07:22:48;15.10;72.80
10057;DHT22;5068;51.286;7.518;2022-08-19T07:24:24;15.20;72.50
10057;DHT22;5068;51.286;7.518;2022-08-19T07:26:05;15.20;72.40
10057;DHT22;5068;51.286;7.518;2022-08-19T07:27:40;15.30;72.50
10057;DHT22;5068;51.286;7.518;2022-08-19T07:29:19;15.50;72.80
10057;DHT22;5068;51.286;7.518;2022-08-19T07:30:56;15.50;73.00
10057;DHT22;5068;51.286;7.518;2022-08-19T07:32:30;15.60;72.90
10057;DHT22;5068;51.286;7.518;2022-08-19T07:34:04;15.70;73.00
10057;DHT22;5068;51.286;7.518;2022-08-19T07:35:39;15.90;73.10
10057;DHT22;5068;51.286;7.518;2022-08-19T07:37:13;15.90;73.00
10057;DHT22;5068;51.286;7.518;2022-08-19T07:38:48;16.00;73.20
10057;DHT22;5068;51.286;7.518;2022-08-19T07:40:23;16.20;73.10
10057;DHT22;5068;51.286;7.518;2022-08-19T07:41:58;16.20;72.80
10057;DHT22;5068;51.286;7.518;2022-08-19T07:43:33;16.40;72.80
10057;DHT22;5068;51.286;7.518;2022-08-19T07:45:08;16.40;73.00
10057;DHT22;5068;51.286;7.518;2022-08-19T07:46:45;16.60;72.70
10057;DHT22;5068;51.286;7.518;2022-08-19T07:48:25;16.70;72.50
10057;DHT22;5068;51.286;7.518;2022-08-19T07:50:00;16.70;72.40
10057;DHT22;5068;51.286;7.518;2022-08-19T07:51:39;16.90;72.50
10057;DHT22;5068;51.286;7.518;2022-08-19T07:53:13;17.00;72.40
10057;DHT22;5068;51.286;7.518;2022-08-19T07:54:46;17.10;72.50
10057;DHT22;5068;51.286;7.518;2022-08-19T07:56:21;17.20;72.30
10057;DHT22;5068;51.286;7.518;2022-08-19T07:57:55;17.30;72.30
10057;DHT22;5068;51.286;7.518;2022-08-19T07:59:28;17.40;72.30
10057;DHT22;5068;51.286;7.518;2022-08-19T08:01:05;17.50;72.20
10057;DHT22;5068;51.286;7.518;2022-08-19T08:02:39;17.60;71.90
10057;DHT22;5068;51.286;7.518;2022-08-19T08:04:14;17.70;71.80
10057;DHT22;5068;51.286;7.518;2022-08-19T08:06:05;17.90;71.90
10057;DHT22;5068;51.286;7.518;2022-08-19T08:07:59;18.00;71.80
10057;DHT22;5068;51.286;7.518;2022-08-19T08:09:51;18.10;71.40
10057;DHT22;5068;51.286;7.518;2022-08-19T08:11:30;18.20;71.40
10057;DHT22;5068;51.286;7.518;2022-08-19T08:13:03;18.40;71.20
10057;DHT22;5068;51.286;7.518;2022-08-19T08:14:45;18.50;71.00
10057;DHT22;5068;51.286;7.518;2022-08-19T08:16:28;18.60;70.40
10057;DHT22;5068;51.286;7.518;2022-08-19T08:18:03;18.70;69.90
10057;DHT22;5068;51.286;7.518;2022-08-19T08:19:39;18.80;69.40
10057;DHT22;5068;51.286;7.518;2022-08-19T08:21:13;19.00;69.00
10057;DHT22;5068;51.286;7.518;2022-08-19T08:22:47;19.00;68.60
10057;DHT22;5068;51.286;7.518;2022-08-19T08:24:38;19.20;67.90
10057;DHT22;5068;51.286;7.518;2022-08-19T08:26:12;19.30;67.40
10057;DHT22;5068;51.286;7.518;2022-08-19T08:27:47;19.40;66.90
10057;DHT22;5068;51.286;7.518;2022-08-19T08:29:26;19.60;66.50
10057;DHT22;5068;51.286;7.518;2022-08-19T08:31:06;19.70;66.10
10057;DHT22;5068;51.286;7.518;2022-08-19T08:32:42;19.80;65.30
10057;DHT22;5068;51.286;7.518;2022-08-19T08:34:16;19.90;64.40
10057;DHT22;5068;51.286;7.518;2022-08-19T08:35:49;20.00;64.20
10057;DHT22;5068;51.286;7.518;2022-08-19T08:37:25;20.10;63.70
10057;DHT22;5068;51.286;7.518;2022-08-19T08:38:58;20.20;63.10
10057;DHT22;5068;51.286;7.518;2022-08-19T08:40:39;20.30;62.90
10057;DHT22;5068;51.286;7.518;2022-08-19T08:42:20;20.30;62.00
10057;DHT22;5068;51.286;7.518;2022-08-19T08:44:00;20.40;61.70
10057;DHT22;5068;51.286;7.518;2022-08-19T08:45:44;20.50;61.50
10057;DHT22;5068;51.286;7.518;2022-08-19T08:47:26;20.60;60.80
10057;DHT22;5068;51.286;7.518;2022-08-19T08:49:24;20.70;60.70
10057;DHT22;5068;51.286;7.518;2022-08-19T08:51:05;20.80;59.90
10057;DHT22;5068;51.286;7.518;2022-08-19T08:52:45;20.90;59.60
10057;DHT22;5068;51.286;7.518;2022-08-19T08:54:24;21.00;59.50
10057;DHT22;5068;51.286;7.518;2022-08-19T08:56:03;21.00;59.50
10057;DHT22;5068;51.286;7.518;2022-08-19T08:57:43;21.10;59.10
10057;DHT22;5068;51.286;7.518;2022-08-19T08:59:26;21.20;59.10
10057;DHT22;5068;51.286;7.518;2022-08-19T09:01:04;21.20;58.50
10057;DHT22;5068;51.286;7.518;2022-08-19T09:02:38;21.30;58.70
10057;DHT22;5068;51.286;7.518;2022-08-19T09:04:16;21.40;58.40
10057;DHT22;5068;51.286;7.518;2022-08-19T09:05:57;21.50;57.70
10057;DHT22;5068;51.286;7.518;2022-08-19T09:07:41;21.60;56.40
10057;DHT22;5068;51.286;7.518;2022-08-19T09:09:29;21.70;56.30
10057;DHT22;5068;51.286;7.518;2022-08-19T09:11:08;21.80;56.60
10057;DHT22;5068;51.286;7.518;2022-08-19T09:13:18;21.90;56.40
10057;DHT22;5068;51.286;7.518;2022-08-19T09:15:10;22.00;56.00
10057;DHT22;5068;51.286;7.518;2022-08-19T09:16:46;22.10;55.70
10057;DHT22;5068;51.286;7.518;2022-08-19T09:18:21;22.10;55.40
10057;DHT22;5068;51.286;7.518;2022-08-19T09:19:58;22.20;55.40
10057;DHT22;5068;51.286;7.518;2022-08-19T09:21:36;22.30;54.10
10057;DHT22;5068;51.286;7.518;2022-08-19T09:23:11;22.40;54.60
10057;DHT22;5068;51.286;7.518;2022-08-19T09:24:45;22.40;54.30
10057;DHT22;5068;51.286;7.518;2022-08-19T09:26:21;22.50;54.50
10057;DHT22;5068;51.286;7.518;2022-08-19T09:28:15;22.60;54.00
10057;DHT22;5068;51.286;7.518;2022-08-19T09:29:58;22.70;54.00
10057;DHT22;5068;51.286;7.518;2022-08-19T09:31:32;22.80;53.20
10057;DHT22;5068;51.286;7.518;2022-08-19T09:33:05;22.90;53.20
10057;DHT22;5068;51.286;7.518;2022-08-19T09:34:39;22.90;52.50
10057;DHT22;5068;51.286;7.518;2022-08-19T09:36:18;23.00;52.30
10057;DHT22;5068;51.286;7.518;2022-08-19T09:38:05;23.00;52.00
10057;DHT22;5068;51.286;7.518;2022-08-19T09:39:41;23.10;52.10
10057;DHT22;5068;51.286;7.518;2022-08-19T09:41:24;23.10;51.70
10057;DHT22;5068;51.286;7.518;2022-08-19T09:42:59;23.20;50.80
10057;DHT22;5068;51.286;7.518;2022-08-19T09:44:41;23.20;51.60
10057;DHT22;5068;51.286;7.518;2022-08-19T09:46:15;23.30;51.50
10057;DHT22;5068;51.286;7.518;2022-08-19T09:47:51;23.40;51.40
10057;DHT22;5068;51.286;7.518;2022-08-19T09:49:26;23.40;51.10
10057;DHT22;5068;51.286;7.518;2022-08-19T09:51:04;23.50;51.20
10057;DHT22;5068;51.286;7.518;2022-08-19T09:52:45;23.60;50.80
10057;DHT22;5068;51.286;7.518;2022-08-19T09:54:28;23.70;51.60
10057;DHT22;5068;51.286;7.518;2022-08-19T09:56:02;23.80;51.00
10057;DHT22;5068;51.286;7.518;2022-08-19T09:57:39;23.80;51.00
10057;DHT22;5068;51.286;7.518;2022-08-19T09:59:12;23.90;50.70
10057;DHT22;5068;51.286;7.518;2022-08-19T10:00:46;24.00;50.70
10057;DHT22;5068;51.286;7.518;2022-08-19T10:02:22;24.10;50.50
10057;DHT22;5068;51.286;7.518;2022-08-19T10:04:01;24.10;50.00
10057;DHT22;5068;51.286;7.518;2022-08-19T10:05:46;24.10;48.90
10057;DHT22;5068;51.286;7.518;2022-08-19T10:07:25;24.20;48.70
10057;DHT22;5068;51.286;7.518;2022-08-19T10:09:09;24.20;48.50
10057;DHT22;5068;51.286;7.518;2022-08-19T10:10:44;24.20;48.20
10057;DHT22;5068;51.286;7.518;2022-08-19T10:12:19;24.20;48.20
10057;DHT22;5068;51.286;7.518;2022-08-19T10:13:52;24.20;48.40
10057;DHT22;5068;51.286;7.518;2022-08-19T10:15:26;24.30;48.70
10057;DHT22;5068;51.286;7.518;2022-08-19T10:17:01;24.30;48.40
10057;DHT22;5068;51.286;7.518;2022-08-19T10:18:51;24.30;48.70
10057;DHT22;5068;51.286;7.518;2022-08-19T10:20:30;24.30;48.70
10057;DHT22;5068;51.286;7.518;2022-08-19T10:22:04;24.40;48.70
10057;DHT22;5068;51.286;7.518;2022-08-19T10:23:44;24.40;48.30